sensor_id;sensor_type;location;lat;lon;timestamp;temperature;humidity
9768;DHT22;4923;52.520;13.494;2023-12-04T00:00:37;-3.70;99.90
9768;DHT22;4923;52.520;13.494;2023-12-04T00:03:24;-3.70;99.90
9768;DHT22;4923;52.520;13.494;2023-12-04T00:06:11;-3.70;99.90
9768;DHT22;4923;52.520;13.494;2023-12-04T00:08:58;-3.80;99.90
9768;DHT22;4923;52.520;13.494;2023-12-04T00:11:46;-3.80;99.90
9768;DHT22;4923;52.520;13.494;2023-12-04T00:14:33;-3.80;99.90
9768;DHT22;4923;52.520;13.494;2023-12-04T00:17:20;-3.90;99.90
9768;DHT22;4923;52.520;13.494;2023-12-04T00:20:09;-3.90;99.90
9768;DHT22;4923;52.520;13.494;2023-12-04T00:22:56;-4.00;99.90
9768;DHT22;4923;52.520;13.494;2023-12-04T00:25:42;-3.90;99.90
9768;DHT22;4923;52.520;13.494;2023-12-04T00:28:31;-4.00;99.90
9768;DHT22;4923;52.520;13.494;2023-12-04T00:31:17;-4.00;99.90
9768;DHT22;4923;52.520;13.494;2023-12-04T00:34:04;-4.00;99.90
9768;DHT22;4923;52.520;13.494;2023-12-04T00:36:51;-4.00;99.90
9768;DHT22;4923;52.520;13.494;2023-12-04T00:39:38;-4.00;99.90
9768;DHT22;4923;52.520;13.494;2023-12-04T00:42:25;-4.10;99.90
9768;DHT22;4923;52.520;13.494;2023-12-04T00:45:13;-4.10;99.90
9768;DHT22;4923;52.520;13.494;2023-12-04T00:48:00;-4.10;99.90
9768;DHT22;4923;52.520;13.494;2023-12-04T00:50:46;-4.10;1.00
9768;DHT22;4923;52.520;13.494;2023-12-04T00:53:33;-4.10;1.00
9768;DHT22;4923;52.520;13.494;2023-12-04T00:56:20;-4.20;1.00
9768;DHT22;4923;52.520;13.494;2023-12-04T00:59:09;-4.20;1.00
9768;DHT22;4923;52.520;13.494;2023-12-04T01:01:57;-4.10;1.00
9768;DHT22;4923;52.520;13.494;2023-12-04T01:04:44;-4.10;1.00
9768;DHT22;4923;52.520;13.494;2023-12-04T01:07:31;-4.10;1.00
9768;DHT22;4923;52.520;13.494;2023-12-04T01:10:18;-4.10;1.00
9768;DHT22;4923;52.520;13.494;2023-12-04T01:13:05;-4.10;1.00
9768;DHT22;4923;52.520;13.494;2023-12-04T01:15:52;-4.10;1.00
9768;DHT22;4923;52.520;13.494;2023-12-04T01:18:41;-4.10;1.00
9768;DHT22;4923;52.520;13.494;2023-12-04T01:21:27;-4.10;1.00
9768;DHT22;4923;52.520;13.494;2023-12-04T01:24:15;-4.00;1.00
9768;DHT22;4923;52.520;13.494;2023-12-04T01:27:02;-4.10;1.00
9768;DHT22;4923;52.520;13.494;2023-12-04T01:29:49;-4.10;1.00
9768;DHT22;4923;52.520;13.494;2023-12-04T01:32:36;-4.10;1.00
9768;DHT22;4923;52.520;13.494;2023-12-04T01:35:24;-4.10;1.00
9768;DHT22;4923;52.520;13.494;2023-12-04T01:38:11;-4.10;1.00
9768;DHT22;4923;52.520;13.494;2023-12-04T01:40:58;-4.10;1.00
9768;DHT22;4923;52.520;13.494;2023-12-04T01:43:45;-4.20;1.00
9768;DHT22;4923;52.520;13.494;2023-12-04T01:46:32;-4.10;1.00
9768;DHT22;4923;52.520;13.494;2023-12-04T01:49:19;-4.10;1.00
9768;DHT22;4923;52.520;13.494;2023-12-04T01:52:07;-4.20;1.00
9768;DHT22;4923;52.520;13.494;2023-12-04T01:54:54;-4.20;1.00
9768;DHT22;4923;52.520;13.494;2023-12-04T01:57:41;-4.10;1.00
9768;DHT22;4923;52.520;13.494;2023-12-04T02:00:29;-4.10;1.00
9768;DHT22;4923;52.520;13.494;2023-12-04T02:03:16;-4.10;1.00
9768;DHT22;4923;52.520;13.494;2023-12-04T02:06:04;-4.10;1.00
9768;DHT22;4923;52.520;13.494;2023-12-04T02:08:52;-4.10;1.00
9768;DHT22;4923;52.520;13.494;2023-12-04T02:11:39;-4.10;1.00
9768;DHT22;4923;52.520;13.494;2023-12-04T02:14:26;-4.10;1.00
9768;DHT22;4923;52.520;13.494;2023-12-04T02:17:14;-4.20;1.00
9768;DHT22;4923;52.520;13.494;2023-12-04T02:20:03;-4.10;1.00
9768;DHT22;4923;52.520;13.494;2023-12-04T02:22:50;-4.20;1.00
9768;DHT22;4923;52.520;13.494;2023-12-04T02:25:39;-4.20;1.00
9768;DHT22;4923;52.520;13.494;2023-12-04T02:28:29;-4.20;1.00
9768;DHT22;4923;52.520;13.494;2023-12-04T02:31:18;-4.20;1.00
9768;DHT22;4923;52.520;13.494;2023-12-04T02:34:06;-4.20;1.00
9768;DHT22;4923;52.520;13.494;2023-12-04T02:36:53;-4.20;1.00
9768;DHT22;4923;52.520;13.494;2023-12-04T02:39:41;-4.10;1.00
9768;DHT22;4923;52.520;13.494;2023-12-04T02:42:29;-4.10;1.00
9768;DHT22;4923;52.520;13.494;2023-12-04T02:45:16;-4.10;1.00
9768;DHT22;4923;52.520;13.494;2023-12-04T02:48:04;-4.00;1.00
9768;DHT22;4923;52.520;13.494;2023-12-04T02:50:51;-4.00;1.00
9768;DHT22;4923;52.520;13.494;2023-12-04T02:53:37;-4.00;1.00
9768;DHT22;4923;52.520;13.494;2023-12-04T02:56:24;-4.00;1.00
9768;DHT22;4923;52.520;13.494;2023-12-04T02:59:12;-4.00;1.00
9768;DHT22;4923;52.520;13.494;2023-12-04T03:01:59;-3.90;1.00
9768;DHT22;4923;52.520;13.494;2023-12-04T03:04:46;-3.90;1.00
9768;DHT22;4923;52.520;13.494;2023-12-04T03:07:33;-3.90;1.00
9768;DHT22;4923;52.520;13.494;2023-12-04T03:10:20;-3.90;1.00
9768;DHT22;4923;52.520;13.494;2023-12-04T03:13:07;-3.90;1.00
9768;DHT22;4923;52.520;13.494;2023-12-04T03:15:55;-3.90;1.00
9768;DHT22;4923;52.520;13.494;2023-12-04T03:18:41;-3.90;1.00
9768;DHT22;4923;52.520;13.494;2023-12-04T03:21:28;-4.00;1.00
9768;DHT22;4923;52.520;13.494;2023-12-04T03:24:15;-4.00;1.00
9768;DHT22;4923;52.520;13.494;2023-12-04T03:27:02;-3.90;1.00
9768;DHT22;4923;52.520;13.494;2023-12-04T03:29:49;-4.00;1.00
9768;DHT22;4923;52.520;13.494;2023-12-04T03:32:37;-4.00;1.00
9768;DHT22;4923;52.520;13.494;2023-12-04T03:35:24;-4.00;1.00
9768;DHT22;4923;52.520;13.494;2023-12-04T03:38:11;-4.00;1.00
9768;DHT22;4923;52.520;13.494;2023-12-04T03:40:58;-4.10;1.00
9768;DHT22;4923;52.520;13.494;2023-12-04T03:43:44;-4.10;1.00
9768;DHT22;4923;52.520;13.494;2023-12-04T03:46:31;-4.10;1.00
9768;DHT22;4923;52.520;13.494;2023-12-04T03:49:19;-4.10;1.00
9768;DHT22;4923;52.520;13.494;2023-12-04T03:52:06;-4.10;1.00
9768;DHT22;4923;52.520;13.494;2023-12-04T03:54:53;-4.10;1.00
9768;DHT22;4923;52.520;13.494;2023-12-04T03:57:40;-4.10;1.00
9768;DHT22;4923;52.520;13.494;2023-12-04T04:00:27;-4.10;1.00
9768;DHT22;4923;52.520;13.494;2023-12-04T04:03:14;-4.00;1.00
9768;DHT22;4923;52.520;13.494;2023-12-04T04:06:02;-4.00;1.00
9768;DHT22;4923;52.520;13.494;2023-12-04T04:08:49;-3.90;1.00
9768;DHT22;4923;52.520;13.494;2023-12-04T04:11:36;-3.90;1.00
9768;DHT22;4923;52.520;13.494;2023-12-04T04:14:23;-3.90;1.00
9768;DHT22;4923;52.520;13.494;2023-12-04T04:17:10;-3.90;1.00
9768;DHT22;4923;52.520;13.494;2023-12-04T04:19:57;-3.80;1.00
9768;DHT22;4923;52.520;13.494;2023-12-04T04:22:47;-3.80;1.00
9768;DHT22;4923;52.520;13.494;2023-12-04T04:25:34;-3.80;1.00
9768;DHT22;4923;52.520;13.494;2023-12-04T04:28:21;-3.80;1.00
9768;DHT22;4923;52.520;13.494;2023-12-04T04:31:08;-3.80;99.90
9768;DHT22;4923;52.520;13.494;2023-12-04T04:33:54;-3.80;99.90
9768;DHT22;4923;52.520;13.494;2023-12-04T04:36:42;-3.80;1.00
9768;DHT22;4923;52.520;13.494;2023-12-04T04:39:30;-3.80;99.90
9768;DHT22;4923;52.520;13.494;2023-12-04T04:42:17;-3.90;99.90
9768;DHT22;4923;52.520;13.494;2023-12-04T04:45:05;-3.90;99.90
9768;DHT22;4923;52.520;13.494;2023-12-04T04:47:52;-3.80;99.90
9768;DHT22;4923;52.520;13.494;2023-12-04T04:50:38;-3.90;99.90
9768;DHT22;4923;52.520;13.494;2023-12-04T04:53:25;-3.80;99.90
9768;DHT22;4923;52.520;13.494;2023-12-04T04:56:13;-3.80;99.90
9768;DHT22;4923;52.520;13.494;2023-12-04T04:59:00;-3.80;99.90
9768;DHT22;4923;52.520;13.494;2023-12-04T05:01:47;-3.80;99.90
9768;DHT22;4923;52.520;13.494;2023-12-04T05:04:34;-3.80;99.90
9768;DHT22;4923;52.520;13.494;2023-12-04T05:07:21;-3.70;99.90
9768;DHT22;4923;52.520;13.494;2023-12-04T05:10:08;-3.70;99.90
9768;DHT22;4923;52.520;13.494;2023-12-04T05:12:56;-3.60;99.90
9768;DHT22;4923;52.520;13.494;2023-12-04T05:15:43;-3.60;1.00
9768;DHT22;4923;52.520;13.494;2023-12-04T05:18:30;-3.60;99.90
9768;DHT22;4923;52.520;13.494;2023-12-04T05:21:17;-3.60;99.90
9768;DHT22;4923;52.520;13.494;2023-12-04T05:24:05;-3.60;99.90
9768;DHT22;4923;52.520;13.494;2023-12-04T05:26:51;-3.60;99.90
9768;DHT22;4923;52.520;13.494;2023-12-04T05:29:40;-3.70;99.90
9768;DHT22;4923;52.520;13.494;2023-12-04T05:32:26;-3.70;99.90
9768;DHT22;4923;52.520;13.494;2023-12-04T05:35:15;-3.80;99.90
9768;DHT22;4923;52.520;13.494;2023-12-04T05:38:02;-3.80;99.90
9768;DHT22;4923;52.520;13.494;2023-12-04T05:40:49;-3.80;99.90
9768;DHT22;4923;52.520;13.494;2023-12-04T05:43:36;-3.90;99.90
9768;DHT22;4923;52.520;13.494;2023-12-04T05:46:24;-3.90;99.90
9768;DHT22;4923;52.520;13.494;2023-12-04T05:49:11;-3.90;99.90
9768;DHT22;4923;52.520;13.494;2023-12-04T05:51:57;-3.80;99.90
9768;DHT22;4923;52.520;13.494;2023-12-04T05:54:44;-3.90;99.90
9768;DHT22;4923;52.520;13.494;2023-12-04T05:57:31;-3.80;99.90
9768;DHT22;4923;52.520;13.494;2023-12-04T06:00:18;-3.90;99.90
9768;DHT22;4923;52.520;13.494;2023-12-04T06:03:08;-3.90;99.90
9768;DHT22;4923;52.520;13.494;2023-12-04T06:05:55;-3.90;99.90
9768;DHT22;4923;52.520;13.494;2023-12-04T06:08:42;-3.90;99.90
9768;DHT22;4923;52.520;13.494;2023-12-04T06:11:29;-3.90;1.00
9768;DHT22;4923;52.520;13.494;2023-12-04T06:14:16;-3.80;1.00
9768;DHT22;4923;52.520;13.494;2023-12-04T06:17:03;-3.70;99.90
9768;DHT22;4923;52.520;13.494;2023-12-04T06:19:52;-3.60;99.90
9768;DHT22;4923;52.520;13.494;2023-12-04T06:22:40;-3.60;99.90
9768;DHT22;4923;52.520;13.494;2023-12-04T06:25:27;-3.50;99.90
9768;DHT22;4923;52.520;13.494;2023-12-04T06:28:15;-3.40;1.00
9768;DHT22;4923;52.520;13.494;2023-12-04T06:31:02;-3.30;99.90
9768;DHT22;4923;52.520;13.494;2023-12-04T06:33:49;-3.20;99.90
9768;DHT22;4923;52.520;13.494;2023-12-04T06:36:39;-3.20;99.90
9768;DHT22;4923;52.520;13.494;2023-12-04T06:39:29;-3.10;99.90
9768;DHT22;4923;52.520;13.494;2023-12-04T06:42:19;-3.10;99.90
9768;DHT22;4923;52.520;13.494;2023-12-04T06:45:07;-3.00;99.90
9768;DHT22;4923;52.520;13.494;2023-12-04T06:47:54;-3.00;99.90
9768;DHT22;4923;52.520;13.494;2023-12-04T06:50:41;-2.90;99.90
9768;DHT22;4923;52.520;13.494;2023-12-04T06:53:29;-2.90;99.90
9768;DHT22;4923;52.520;13.494;2023-12-04T06:56:16;-2.90;99.90
9768;DHT22;4923;52.520;13.494;2023-12-04T06:59:03;-2.90;99.90
9768;DHT22;4923;52.520;13.494;2023-12-04T07:01:50;-2.80;99.90
9768;DHT22;4923;52.520;13.494;2023-12-04T07:04:37;-2.80;99.90
9768;DHT22;4923;52.520;13.494;2023-12-04T07:07:25;-2.70;99.90
9768;DHT22;4923;52.520;13.494;2023-12-04T07:10:13;-2.70;99.90
9768;DHT22;4923;52.520;13.494;2023-12-04T07:13:00;-2.70;99.90
9768;DHT22;4923;52.520;13.494;2023-12-04T07:15:47;-2.60;99.90
9768;DHT22;4923;52.520;13.494;2023-12-04T07:18:34;-2.70;99.90
9768;DHT22;4923;52.520;13.494;2023-12-04T07:21:20;-2.70;99.90
9768;DHT22;4923;52.520;13.494;2023-12-04T07:24:08;-2.70;99.90
9768;DHT22;4923;52.520;13.494;2023-12-04T07:26:56;-2.70;99.90
9768;DHT22;4923;52.520;13.494;2023-12-04T07:29:43;-2.70;99.90
9768;DHT22;4923;52.520;13.494;2023-12-04T07:32:29;-2.60;99.90
9768;DHT22;4923;52.520;13.494;2023-12-04T07:35:18;-2.60;99.90
9768;DHT22;4923;52.520;13.494;2023-12-04T07:38:05;-2.50;99.90
9768;DHT22;4923;52.520;13.494;2023-12-04T07:40:51;-2.50;99.90
9768;DHT22;4923;52.520;13.494;2023-12-04T07:43:40;-2.40;99.90
9768;DHT22;4923;52.520;13.494;2023-12-04T07:46:27;-2.30;99.90
9768;DHT22;4923;52.520;13.494;2023-12-04T07:49:14;-2.10;99.90
9768;DHT22;4923;52.520;13.494;2023-12-04T07:52:01;-2.00;99.90
9768;DHT22;4923;52.520;13.494;2023-12-04T07:54:48;-2.00;99.90
9768;DHT22;4923;52.520;13.494;2023-12-04T07:57:35;-1.90;99.90
9768;DHT22;4923;52.520;13.494;2023-12-04T08:00:23;-1.90;99.90
9768;DHT22;4923;52.520;13.494;2023-12-04T08:03:11;-1.80;99.90
9768;DHT22;4923;52.520;13.494;2023-12-04T08:05:58;-1.70;99.90
9768;DHT22;4923;52.520;13.494;2023-12-04T08:08:44;-1.70;99.90
9768;DHT22;4923;52.520;13.494;2023-12-04T08:11:31;-1.50;99.90
9768;DHT22;4923;52.520;13.494;2023-12-04T08:14:18;-1.50;99.90
9768;DHT22;4923;52.520;13.494;2023-12-04T08:17:06;-1.10;99.90
9768;DHT22;4923;52.520;13.494;2023-12-04T08:19:53;-1.20;99.90
9768;DHT22;4923;52.520;13.494;2023-12-04T08:22:41;-1.10;99.90
9768;DHT22;4923;52.520;13.494;2023-12-04T08:25:29;-1.10;99.90
9768;DHT22;4923;52.520;13.494;2023-12-04T08:28:16;-1.10;99.90
9768;DHT22;4923;52.520;13.494;2023-12-04T08:31:03;-1.00;99.90
9768;DHT22;4923;52.520;13.494;2023-12-04T08:33:51;-0.90;99.90
9768;DHT22;4923;52.520;13.494;2023-12-04T08:36:38;-0.90;99.90
9768;DHT22;4923;52.520;13.494;2023-12-04T08:39:25;-0.90;99.90
9768;DHT22;4923;52.520;13.494;2023-12-04T08:42:12;-0.80;99.90
9768;DHT22;4923;52.520;13.494;2023-12-04T08:44:59;-0.90;99.90
9768;DHT22;4923;52.520;13.494;2023-12-04T08:47:46;-0.80;99.90
9768;DHT22;4923;52.520;13.494;2023-12-04T08:50:35;-0.70;99.90
9768;DHT22;4923;52.520;13.494;2023-12-04T08:53:23;-0.60;99.90
9768;DHT22;4923;52.520;13.494;2023-12-04T08:56:10;-0.50;99.90
9768;DHT22;4923;52.520;13.494;2023-12-04T08:58:58;-0.40;99.90
9768;DHT22;4923;52.520;13.494;2023-12-04T09:01:45;-0.30;99.90
9768;DHT22;4923;52.520;13.494;2023-12-04T09:04:32;-0.20;99.90
9768;DHT22;4923;52.520;13.494;2023-12-04T09:07:20;-0.30;99.90
9768;DHT22;4923;52.520;13.494;2023-12-04T09:10:07;-0.20;99.90
9768;DHT22;4923;52.520;13.494;2023-12-04T09:12:55;-0.20;99.90
9768;DHT22;4923;52.520;13.494;2023-12-04T09:15:41;-0.20;99.90
9768;DHT22;4923;52.520;13.494;2023-12-04T09:18:28;-0.10;99.90
9768;DHT22;4923;52.520;13.494;2023-12-04T09:21:15;-0.10;99.90
9768;DHT22;4923;52.520;13.494;2023-12-04T09:24:03;-0.10;99.90
9768;DHT22;4923;52.520;13.494;2023-12-04T09:26:50;-0.10;99.90
9768;DHT22;4923;52.520;13.494;2023-12-04T09:29:37;-0.10;99.90
9768;DHT22;4923;52.520;13.494;2023-12-04T09:32:24;0.00;99.90
9768;DHT22;4923;52.520;13.494;2023-12-04T09:35:11;0.00;99.90
9768;DHT22;4923;52.520;13.494;2023-12-04T09:37:58;0.10;99.90
9768;DHT22;4923;52.520;13.494;2023-12-04T09:40:46;0.10;99.90
9768;DHT22;4923;52.520;13.494;2023-12-04T09:43:33;0.10;99.90
9768;DHT22;4923;52.520;13.494;2023-12-04T09:46:21;0.20;99.90
9768;DHT22;4923;52.520;13.494;2023-12-04T09:49:08;0.30;99.90
9768;DHT22;4923;52.520;13.494;2023-12-04T09:51:57;0.40;99.90
9768;DHT22;4923;52.520;13.494;2023-12-04T09:54:44;0.50;99.90
9768;DHT22;4923;52.520;13.494;2023-12-04T09:57:33;0.50;99.90
9768;DHT22;4923;52.520;13.494;2023-12-04T10:00:21;0.50;99.90
9768;DHT22;4923;52.520;13.494;2023-12-04T10:03:08;0.50;99.90
9768;DHT22;4923;52.520;13.494;2023-12-04T10:05:55;0.50;99.90
9768;DHT22;4923;52.520;13.494;2023-12-04T10:08:42;0.60;99.90
9768;DHT22;4923;52.520;13.494;2023-12-04T10:11:30;0.60;99.90
9768;DHT22;4923;52.520;13.494;2023-12-04T10:14:20;0.80;99.90
9768;DHT22;4923;52.520;13.494;2023-12-04T10:17:14;0.80;99.90
9768;DHT22;4923;52.520;13.494;2023-12-04T10:20:09;0.90;99.90
9768;DHT22;4923;52.520;13.494;2023-12-04T10:22:59;0.90;99.90
9768;DHT22;4923;52.520;13.494;2023-12-04T10:25:48;1.10;99.90
9768;DHT22;4923;52.520;13.494;2023-12-04T10:28:36;1.10;99.90
9768;DHT22;4923;52.520;13.494;2023-12-04T10:31:25;1.30;99.90
9768;DHT22;4923;52.520;13.494;2023-12-04T10:34:13;1.40;99.90
9768;DHT22;4923;52.520;13.494;2023-12-04T10:37:00;1.40;99.90
9768;DHT22;4923;52.520;13.494;2023-12-04T10:39:47;1.40;99.90
9768;DHT22;4923;52.520;13.494;2023-12-04T10:42:34;1.60;99.90
9768;DHT22;4923;52.520;13.494;2023-12-04T10:45:21;1.60;99.90
9768;DHT22;4923;52.520;13.494;2023-12-04T10:48:12;1.70;99.90
9768;DHT22;4923;52.520;13.494;2023-12-04T10:50:59;1.70;99.90
9768;DHT22;4923;52.520;13.494;2023-12-04T10:53:46;1.60;99.90
9768;DHT22;4923;52.520;13.494;2023-12-04T10:56:36;1.70;99.90
9768;DHT22;4923;52.520;13.494;2023-12-04T10:59:27;1.60;99.90
9768;DHT22;4923;52.520;13.494;2023-12-04T11:02:21;1.70;99.90
9768;DHT22;4923;52.520;13.494;2023-12-04T11:05:13;1.70;99.90
9768;DHT22;4923;52.520;13.494;2023-12-04T11:08:05;1.70;99.90
9768;DHT22;4923;52.520;13.494;2023-12-04T11:10:56;1.60;99.90
9768;DHT22;4923;52.520;13.494;2023-12-04T11:13:48;1.60;99.90
9768;DHT22;4923;52.520;13.494;2023-12-04T11:16:41;1.60;99.90
9768;DHT22;4923;52.520;13.494;2023-12-04T11:19:32;1.80;99.90
9768;DHT22;4923;52.520;13.494;2023-12-04T11:22:24;1.70;99.90
9768;DHT22;4923;52.520;13.494;2023-12-04T11:25:13;1.60;99.90
9768;DHT22;4923;52.520;13.494;2023-12-04T11:28:00;1.60;99.90
9768;DHT22;4923;52.520;13.494;2023-12-04T11:30:47;1.60;99.90
9768;DHT22;4923;52.520;13.494;2023-12-04T11:33:36;1.70;99.90
9768;DHT22;4923;52.520;13.494;2023-12-04T11:36:23;1.70;99.90
9768;DHT22;4923;52.520;13.494;2023-12-04T11:39:11;1.60;99.90
9768;DHT22;4923;52.520;13.494;2023-12-04T11:41:58;1.50;99.90
9768;DHT22;4923;52.520;13.494;2023-12-04T11:44:47;1.70;99.90
9768;DHT22;4923;52.520;13.494;2023-12-04T11:47:51;1.60;99.90
9768;DHT22;4923;52.520;13.494;2023-12-04T11:50:38;1.70;99.90
9768;DHT22;4923;52.520;13.494;2023-12-04T11:53:27;1.80;99.90
9768;DHT22;4923;52.520;13.494;2023-12-04T11:56:16;1.80;99.90
9768;DHT22;4923;52.520;13.494;2023-12-04T11:59:03;1.90;99.90
9768;DHT22;4923;52.520;13.494;2023-12-04T12:01:51;1.90;99.90
9768;DHT22;4923;52.520;13.494;2023-12-04T12:04:40;1.90;99.90
9768;DHT22;4923;52.520;13.494;2023-12-04T12:07:27;1.90;99.90
9768;DHT22;4923;52.520;13.494;2023-12-04T12:10:15;2.00;99.90
9768;DHT22;4923;52.520;13.494;2023-12-04T12:13:04;1.80;99.90
9768;DHT22;4923;52.520;13.494;2023-12-04T12:15:51;1.70;99.90
9768;DHT22;4923;52.520;13.494;2023-12-04T12:18:40;1.60;99.90
9768;DHT22;4923;52.520;13.494;2023-12-04T12:21:27;1.70;99.90
9768;DHT22;4923;52.520;13.494;2023-12-04T12:24:15;1.80;99.90
9768;DHT22;4923;52.520;13.494;2023-12-04T12:27:02;1.80;99.90
9768;DHT22;4923;52.520;13.494;2023-12-04T12:29:50;1.60;99.90
9768;DHT22;4923;52.520;13.494;2023-12-04T12:32:37;1.50;99.90
9768;DHT22;4923;52.520;13.494;2023-12-04T12:35:24;1.60;99.90
9768;DHT22;4923;52.520;13.494;2023-12-04T12:38:11;1.50;99.90
9768;DHT22;4923;52.520;13.494;2023-12-04T12:40:58;1.40;99.90
9768;DHT22;4923;52.520;13.494;2023-12-04T12:43:45;1.60;99.90
9768;DHT22;4923;52.520;13.494;2023-12-04T12:46:34;1.40;99.90
9768;DHT22;4923;52.520;13.494;2023-12-04T12:49:22;1.60;99.90
9768;DHT22;4923;52.520;13.494;2023-12-04T12:52:10;1.70;99.90
9768;DHT22;4923;52.520;13.494;2023-12-04T12:54:57;1.80;99.90
9768;DHT22;4923;52.520;13.494;2023-12-04T12:57:44;2.00;99.90
9768;DHT22;4923;52.520;13.494;2023-12-04T13:00:32;2.00;99.90
9768;DHT22;4923;52.520;13.494;2023-12-04T13:03:20;1.90;99.90
9768;DHT22;4923;52.520;13.494;2023-12-04T13:06:08;1.90;99.90
9768;DHT22;4923;52.520;13.494;2023-12-04T13:08:55;2.00;99.90
9768;DHT22;4923;52.520;13.494;2023-12-04T13:11:42;1.90;99.90
9768;DHT22;4923;52.520;13.494;2023-12-04T13:14:29;1.90;99.90
9768;DHT22;4923;52.520;13.494;2023-12-04T13:17:15;1.80;99.90
9768;DHT22;4923;52.520;13.494;2023-12-04T13:20:05;1.70;99.90
9768;DHT22;4923;52.520;13.494;2023-12-04T13:22:54;1.70;99.90
9768;DHT22;4923;52.520;13.494;2023-12-04T13:25:41;1.70;99.90
9768;DHT22;4923;52.520;13.494;2023-12-04T13:28:29;1.60;99.90
9768;DHT22;4923;52.520;13.494;2023-12-04T13:31:16;1.60;99.90
9768;DHT22;4923;52.520;13.494;2023-12-04T13:34:03;1.50;99.90
9768;DHT22;4923;52.520;13.494;2023-12-04T13:36:53;1.60;99.90
9768;DHT22;4923;52.520;13.494;2023-12-04T13:39:40;1.50;99.90
9768;DHT22;4923;52.520;13.494;2023-12-04T13:42:34;1.50;99.90
9768;DHT22;4923;52.520;13.494;2023-12-04T13:45:38;1.50;99.90
9768;DHT22;4923;52.520;13.494;2023-12-04T13:48:26;1.40;99.90
9768;DHT22;4923;52.520;13.494;2023-12-04T13:51:13;1.40;99.90
9768;DHT22;4923;52.520;13.494;2023-12-04T13:54:01;1.20;99.90
9768;DHT22;4923;52.520;13.494;2023-12-04T13:56:55;1.00;99.90
9768;DHT22;4923;52.520;13.494;2023-12-04T13:59:44;1.00;99.90
9768;DHT22;4923;52.520;13.494;2023-12-04T14:02:31;1.00;99.90
9768;DHT22;4923;52.520;13.494;2023-12-04T14:05:18;1.00;99.90
9768;DHT22;4923;52.520;13.494;2023-12-04T14:08:06;1.00;99.90
9768;DHT22;4923;52.520;13.494;2023-12-04T14:10:54;1.00;99.90
9768;DHT22;4923;52.520;13.494;2023-12-04T14:13:41;1.00;99.90
9768;DHT22;4923;52.520;13.494;2023-12-04T14:16:28;1.00;99.90
9768;DHT22;4923;52.520;13.494;2023-12-04T14:19:15;0.90;99.90
9768;DHT22;4923;52.520;13.494;2023-12-04T14:22:03;0.80;99.90
9768;DHT22;4923;52.520;13.494;2023-12-04T14:24:50;0.70;99.90
9768;DHT22;4923;52.520;13.494;2023-12-04T14:27:38;0.60;99.90
9768;DHT22;4923;52.520;13.494;2023-12-04T14:30:26;0.60;99.90
9768;DHT22;4923;52.520;13.494;2023-12-04T14:33:13;0.60;99.90
9768;DHT22;4923;52.520;13.494;2023-12-04T14:36:00;0.50;99.90
9768;DHT22;4923;52.520;13.494;2023-12-04T14:38:47;0.50;99.90
9768;DHT22;4923;52.520;13.494;2023-12-04T14:41:33;0.40;99.90
9768;DHT22;4923;52.520;13.494;2023-12-04T14:44:22;0.40;99.90
9768;DHT22;4923;52.520;13.494;2023-12-04T14:47:09;0.40;99.90
9768;DHT22;4923;52.520;13.494;2023-12-04T14:49:57;0.30;99.90
9768;DHT22;4923;52.520;13.494;2023-12-04T14:52:44;0.30;99.90
9768;DHT22;4923;52.520;13.494;2023-12-04T14:55:35;0.40;99.90
9768;DHT22;4923;52.520;13.494;2023-12-04T14:58:36;0.40;99.90
9768;DHT22;4923;52.520;13.494;2023-12-04T15:01:43;0.30;99.90
9768;DHT22;4923;52.520;13.494;2023-12-04T15:04:44;0.30;99.90
9768;DHT22;4923;52.520;13.494;2023-12-04T15:07:45;0.30;99.90
9768;DHT22;4923;52.520;13.494;2023-12-04T15:10:49;0.20;99.90
9768;DHT22;4923;52.520;13.494;2023-12-04T15:13:58;0.30;99.90
9768;DHT22;4923;52.520;13.494;2023-12-04T15:16:56;0.30;99.90
9768;DHT22;4923;52.520;13.494;2023-12-04T15:19:59;0.30;99.90
9768;DHT22;4923;52.520;13.494;2023-12-04T15:23:05;0.30;99.90
9768;DHT22;4923;52.520;13.494;2023-12-04T15:25:51;0.30;99.90
9768;DHT22;4923;52.520;13.494;2023-12-04T15:28:38;0.30;99.90
9768;DHT22;4923;52.520;13.494;2023-12-04T15:31:24;0.30;99.90
9768;DHT22;4923;52.520;13.494;2023-12-04T15:34:12;0.30;99.90
9768;DHT22;4923;52.520;13.494;2023-12-04T15:36:58;0.30;99.90
9768;DHT22;4923;52.520;13.494;2023-12-04T15:39:45;0.20;99.90
9768;DHT22;4923;52.520;13.494;2023-12-04T15:42:31;0.30;99.90
9768;DHT22;4923;52.520;13.494;2023-12-04T15:45:18;0.30;99.90
9768;DHT22;4923;52.520;13.494;2023-12-04T15:48:04;0.30;99.90
9768;DHT22;4923;52.520;13.494;2023-12-04T15:50:53;0.30;99.90
9768;DHT22;4923;52.520;13.494;2023-12-04T15:53:40;0.30;99.90
9768;DHT22;4923;52.520;13.494;2023-12-04T15:56:26;0.20;99.90
9768;DHT22;4923;52.520;13.494;2023-12-04T15:59:12;0.30;99.90
9768;DHT22;4923;52.520;13.494;2023-12-04T16:01:58;0.30;99.90
9768;DHT22;4923;52.520;13.494;2023-12-04T16:04:45;0.20;99.90
9768;DHT22;4923;52.520;13.494;2023-12-04T16:07:34;0.30;99.90
9768;DHT22;4923;52.520;13.494;2023-12-04T16:10:21;0.30;99.90
9768;DHT22;4923;52.520;13.494;2023-12-04T16:13:07;0.20;99.90
9768;DHT22;4923;52.520;13.494;2023-12-04T16:15:55;0.30;99.90
9768;DHT22;4923;52.520;13.494;2023-12-04T16:18:42;0.30;99.90
9768;DHT22;4923;52.520;13.494;2023-12-04T16:21:29;0.30;99.90
9768;DHT22;4923;52.520;13.494;2023-12-04T16:24:17;0.30;99.90
9768;DHT22;4923;52.520;13.494;2023-12-04T16:27:06;0.30;99.90
9768;DHT22;4923;52.520;13.494;2023-12-04T16:29:53;0.30;99.90
9768;DHT22;4923;52.520;13.494;2023-12-04T16:32:40;0.30;99.90
9768;DHT22;4923;52.520;13.494;2023-12-04T16:35:27;0.30;99.90
9768;DHT22;4923;52.520;13.494;2023-12-04T16:38:14;0.30;99.90
9768;DHT22;4923;52.520;13.494;2023-12-04T16:41:02;0.30;99.90
9768;DHT22;4923;52.520;13.494;2023-12-04T16:43:50;0.30;99.90
9768;DHT22;4923;52.520;13.494;2023-12-04T16:46:37;0.30;99.90
9768;DHT22;4923;52.520;13.494;2023-12-04T16:49:24;0.20;99.90
9768;DHT22;4923;52.520;13.494;2023-12-04T16:52:11;0.20;99.90
9768;DHT22;4923;52.520;13.494;2023-12-04T16:55:00;0.20;99.90
9768;DHT22;4923;52.520;13.494;2023-12-04T16:57:48;0.20;99.90
9768;DHT22;4923;52.520;13.494;2023-12-04T17:00:35;0.20;99.90
9768;DHT22;4923;52.520;13.494;2023-12-04T17:03:22;0.20;99.90
9768;DHT22;4923;52.520;13.494;2023-12-04T17:06:09;0.00;99.90
9768;DHT22;4923;52.520;13.494;2023-12-04T17:08:56;0.00;99.90
9768;DHT22;4923;52.520;13.494;2023-12-04T17:11:43;0.10;99.90
9768;DHT22;4923;52.520;13.494;2023-12-04T17:14:31;0.10;99.90
9768;DHT22;4923;52.520;13.494;2023-12-04T17:17:18;0.10;99.90
9768;DHT22;4923;52.520;13.494;2023-12-04T17:20:06;0.10;99.90
9768;DHT22;4923;52.520;13.494;2023-12-04T17:22:53;0.00;99.90
9768;DHT22;4923;52.520;13.494;2023-12-04T17:25:40;0.00;99.90
9768;DHT22;4923;52.520;13.494;2023-12-04T17:28:27;0.00;99.90
9768;DHT22;4923;52.520;13.494;2023-12-04T17:31:16;0.10;99.90
9768;DHT22;4923;52.520;13.494;2023-12-04T17:34:03;0.10;99.90
9768;DHT22;4923;52.520;13.494;2023-12-04T17:36:50;0.10;99.90
9768;DHT22;4923;52.520;13.494;2023-12-04T17:39:37;0.10;99.90
9768;DHT22;4923;52.520;13.494;2023-12-04T17:42:24;0.00;99.90
9768;DHT22;4923;52.520;13.494;2023-12-04T17:45:11;0.10;99.90
9768;DHT22;4923;52.520;13.494;2023-12-04T17:48:01;0.10;99.90
9768;DHT22;4923;52.520;13.494;2023-12-04T17:50:49;0.00;99.90
9768;DHT22;4923;52.520;13.494;2023-12-04T17:53:38;0.10;99.90
9768;DHT22;4923;52.520;13.494;2023-12-04T17:56:25;0.10;99.90
9768;DHT22;4923;52.520;13.494;2023-12-04T17:59:12;0.10;99.90
9768;DHT22;4923;52.520;13.494;2023-12-04T18:02:00;0.10;99.90
9768;DHT22;4923;52.520;13.494;2023-12-04T18:04:48;0.00;99.90
9768;DHT22;4923;52.520;13.494;2023-12-04T18:07:35;0.00;99.90
9768;DHT22;4923;52.520;13.494;2023-12-04T18:10:22;0.10;99.90